Time;durP1;ratioP1;P1;durP2;ratioP2;P2;SDS_P1;SDS_P2;PMS_P1;PMS_P2;Temp;Humidity;BMP_temperature;BMP_pressure;BME280_temperature;BME280_humidity;BME280_pressure;Samples;Min_cycle;Max_cycle;Signal;HPM_P1;HPM_P2
2022/05/10 00:00:58;;;;;;;17.90;10.80;;;;;;;10.12;78.83;94506.31;4992785;28;20050;-61
2022/05/10 00:03:35;;;;;;;14.80;9.93;;;;;;;10.08;78.79;94498.13;4991689;28;21039;-63
2022/05/10 00:06:04;;;;;;;17.35;10.80;;;;;;;10.06;78.97;94496.94;4992226;28;20069;-61
2022/05/10 00:08:31;;;;;;;15.95;10.85;;;;;;;9.96;79.75;94504.03;4992253;28;20092;-61
2022/05/10 00:10:58;;;;;;;15.80;10.38;;;;;;;9.98;79.67;94496.19;4991805;28;20398;-63
2022/05/10 00:13:25;;;;;;;15.37;10.40;;;;;;;9.95;79.81;94497.00;4992319;28;20045;-60
2022/05/10 00:15:52;;;;;;;16.58;11.07;;;;;;;9.95;79.76;94503.25;4975251;28;20045;-60
2022/05/10 00:18:22;;;;;;;17.52;11.27;;;;;;;9.86;80.02;94504.84;4991742;28;20058;-60
2022/05/10 00:20:49;;;;;;;16.63;10.63;;;;;;;9.77;80.15;94503.28;4975276;28;20056;-61
2022/05/10 00:23:16;;;;;;;17.00;11.25;;;;;;;9.77;79.87;94500.56;4974674;28;20080;-64
2022/05/10 00:25:43;;;;;;;17.90;11.27;;;;;;;9.73;79.73;94501.75;4992152;28;20058;-60
2022/05/10 00:28:10;;;;;;;16.83;11.07;;;;;;;9.61;80.09;94505.69;4991845;28;20046;-64
2022/05/10 00:30:38;;;;;;;16.38;11.00;;;;;;;9.61;79.97;94500.22;4992095;28;20046;-61
2022/05/10 00:33:05;;;;;;;16.88;11.13;;;;;;;9.61;79.84;94502.94;4991432;28;20499;-61
2022/05/10 00:35:34;;;;;;;17.67;12.02;;;;;;;9.51;79.73;94499.06;4974754;28;20499;-61
2022/05/10 00:38:04;;;;;;;18.10;12.23;;;;;;;9.46;79.91;94499.47;4991711;28;20050;-62
2022/05/10 00:40:35;;;;;;;27.65;17.33;;;;;;;9.45;80.06;94500.63;4991551;28;20043;-61
2022/05/10 00:43:27;;;;;;;20.70;13.45;;;;;;;9.36;80.59;94489.31;4991766;28;20057;-64
2022/05/10 00:46:02;;;;;;;17.92;11.50;;;;;;;9.36;80.75;94489.31;4983902;28;20517;-61
2022/05/10 00:48:43;;;;;;;18.38;10.85;;;;;;;9.35;80.75;94499.47;4984617;28;20540;-62
2022/05/10 00:51:19;;;;;;;16.07;10.47;;;;;;;9.34;80.24;94497.13;4978896;28;20042;-61
2022/05/10 00:54:16;;;;;;;15.27;10.43;;;;;;;9.33;80.36;94485.38;4972930;28;20046;-61
2022/05/10 00:56:50;;;;;;;16.67;10.60;;;;;;;9.28;80.06;94485.00;4970790;28;20646;-61
2022/05/10 00:59:19;;;;;;;17.30;10.93;;;;;;;9.31;80.77;94487.72;4972463;28;20443;-61
2022/05/10 01:01:52;;;;;;;16.73;10.85;;;;;;;9.32;80.47;94483.06;4972434;28;20403;-61
2022/05/10 01:04:30;;;;;;;17.13;11.37;;;;;;;9.31;81.41;94492.44;4972214;28;20476;-63
2022/05/10 01:07:22;;;;;;;18.70;11.88;;;;;;;9.27;81.40;94488.91;4972827;28;20510;-62
2022/05/10 01:09:54;;;;;;;19.83;12.10;;;;;;;9.17;82.99;94485.78;4971886;28;20136;-63
2022/05/10 01:12:36;;;;;;;19.88;12.13;;;;;;;9.20;82.34;94484.25;4971982;28;20057;-62
2022/05/10 01:15:07;;;;;;;19.77;12.88;;;;;;;9.21;83.02;94483.06;4972036;28;20403;-62
2022/05/10 01:17:34;;;;;;;17.73;11.67;;;;;;;9.16;82.79;94480.72;4982201;28;20407;-61
2022/05/10 01:20:01;;;;;;;16.38;10.98;;;;;;;9.14;82.16;94478.38;4991318;28;20422;-63
2022/05/10 01:22:40;;;;;;;18.23;11.93;;;;;;;9.13;82.41;94479.53;4992059;28;20505;-61
2022/05/10 01:25:32;;;;;;;18.40;11.80;;;;;;;9.08;82.58;94469.00;4990965;28;20086;-61
2022/05/10 01:28:08;;;;;;;19.02;12.63;;;;;;;9.09;82.84;94469.75;4991517;28;20381;-62
2022/05/10 01:30:36;;;;;;;18.70;11.43;;;;;;;9.02;82.58;94470.56;4991581;28;20069;-61
2022/05/10 01:36:09;;;;;;;18.40;11.55;;;;;;;8.77;82.96;94478.75;4991707;28;20446;-63
2022/05/10 01:38:38;;;;;;;17.20;11.27;;;;;;;8.77;82.51;94474.06;4990695;28;20912;-61
2022/05/10 01:41:18;;;;;;;18.48;11.60;;;;;;;8.74;83.10;94474.06;4990571;28;20509;-61
2022/05/10 01:44:03;;;;;;;16.67;10.83;;;;;;;8.75;82.65;94470.16;4991530;28;20056;-61
2022/05/10 01:46:31;;;;;;;19.42;11.68;;;;;;;8.76;83.21;94463.50;4990587;28;20296;-61
2022/05/10 01:49:16;;;;;;;18.10;11.38;;;;;;;8.77;83.27;94462.34;4990748;28;20389;-58
2022/05/10 01:51:51;;;;;;;19.17;11.63;;;;;;;8.74;83.21;94468.59;4991412;28;20190;-62
2022/05/10 01:54:39;;;;;;;18.77;12.23;;;;;;;8.65;84.23;94462.72;4990627;28;20050;-64
2022/05/10 01:57:16;;;;;;;19.30;11.93;;;;;;;8.66;83.50;94456.84;4990555;28;20395;-62
2022/05/10 01:59:53;;;;;;;24.45;14.35;;;;;;;8.65;83.76;94454.50;4990281;28;20042;-64
2022/05/10 02:02:24;;;;;;;20.65;12.63;;;;;;;8.62;83.85;94452.56;4980194;28;20042;-66
2022/05/10 02:04:57;;;;;;;20.50;11.75;;;;;;;8.62;83.77;94453.34;4991295;28;20093;-62
2022/05/10 02:07:26;;;;;;;20.35;12.13;;;;;;;8.56;83.80;94452.16;4990166;28;20781;-61
2022/05/10 02:10:25;;;;;;;19.23;12.60;;;;;;;8.50;84.23;94446.28;4991303;28;20491;-61
2022/05/10 02:13:05;;;;;;;21.63;12.25;;;;;;;8.46;84.17;94442.00;4971948;28;20077;-62
2022/05/10 02:15:42;;;;;;;22.38;13.18;;;;;;;8.42;84.87;94438.47;4972541;28;20050;-65
2022/05/10 02:18:12;;;;;;;21.55;12.85;;;;;;;8.43;84.65;94440.81;4990158;28;20046;-61
2022/05/10 02:21:00;;;;;;;22.27;14.43;;;;;;;8.30;85.05;94432.16;4973515;28;20051;-61
2022/05/10 02:23:32;;;;;;;22.47;12.93;;;;;;;8.29;85.21;94427.88;4989911;28;21846;-63
2022/05/10 02:26:08;;;;;;;21.00;13.10;;;;;;;8.30;85.31;94425.91;4990465;28;20092;-62
2022/05/10 02:28:43;;;;;;;25.35;14.38;;;;;;;8.30;85.81;94428.66;4990816;28;20062;-61
2022/05/10 02:31:26;;;;;;;23.60;14.52;;;;;;;8.31;85.22;94433.75;4990315;28;20054;-62
2022/05/10 02:33:55;;;;;;;21.85;14.13;;;;;;;8.23;85.87;94443.09;4990554;28;20050;-65
2022/05/10 02:36:22;;;;;;;21.20;13.43;;;;;;;8.05;87.47;94442.25;4990208;28;20042;-63
2022/05/10 02:38:48;;;;;;;20.15;13.80;;;;;;;8.00;86.93;94441.47;4990808;28;20490;-62
2022/05/10 02:41:21;;;;;;;23.40;13.75;;;;;;;8.06;87.02;94438.38;4989878;28;20096;-61
2022/05/10 02:43:58;;;;;;;23.63;13.65;;;;;;;8.07;86.54;94438.00;4990652;28;20046;-65
2022/05/10 02:46:25;;;;;;;21.52;13.68;;;;;;;8.07;86.38;94440.72;4989885;28;21854;-62
2022/05/10 02:48:52;;;;;;;24.97;13.63;;;;;;;8.07;86.42;94435.25;4990637;28;20076;-62
2022/05/10 02:51:20;;;;;;;23.27;13.20;;;;;;;8.01;85.60;94439.53;4990092;28;20054;-61
2022/05/10 02:53:47;;;;;;;20.83;12.80;;;;;;;8.02;84.96;94443.03;4990472;28;20073;-63
2022/05/10 02:56:19;;;;;;;20.30;12.70;;;;;;;8.01;84.92;94442.28;4989699;28;20058;-62
2022/05/10 02:59:15;;;;;;;19.25;11.98;;;;;;;8.02;84.97;94445.78;4973376;28;20042;-61
2022/05/10 03:02:02;;;;;;;18.93;12.00;;;;;;;7.97;84.97;94439.50;4982835;28;20129;-61
2022/05/10 03:04:39;;;;;;;19.85;12.27;;;;;;;7.95;85.67;94441.06;4970235;28;20785;-61
2022/05/10 03:07:08;;;;;;;18.75;12.43;;;;;;;7.94;84.80;94434.81;4970306;28;20051;-60
2022/05/10 03:09:35;;;;;;;19.58;12.32;;;;;;;7.89;85.17;94432.47;4953865;28;20077;-62
2022/05/10 03:12:05;;;;;;;20.90;13.40;;;;;;;7.76;86.60;94431.25;4970203;28;20051;-62
2022/05/10 03:14:33;;;;;;;19.93;13.20;;;;;;;7.74;85.97;94428.88;4971081;28;20050;-61
2022/05/10 03:17:00;;;;;;;20.63;12.48;;;;;;;7.73;86.90;94434.75;4975407;28;20386;-59
2022/05/10 03:19:27;;;;;;;20.52;13.20;;;;;;;7.68;86.90;94435.09;4990188;28;20060;-62
2022/05/10 03:21:53;;;;;;;22.55;13.85;;;;;;;7.70;86.99;94430.81;4990050;28;20061;-62
2022/05/10 03:24:20;;;;;;;24.08;13.55;;;;;;;7.71;86.99;94426.16;4972554;28;20038;-64
2022/05/10 03:26:50;;;;;;;20.00;13.07;;;;;;;7.63;87.59;94432.75;4994092;28;20046;-64
2022/05/10 03:29:17;;;;;;;20.05;12.38;;;;;;;7.55;87.37;94431.94;4993446;28;20496;-62
2022/05/10 03:31:44;;;;;;;23.80;13.93;;;;;;;7.62;87.24;94431.19;4993787;28;20054;-65
2022/05/10 03:36:56;;;;;;;26.70;16.20;;;;;;;7.58;88.07;94425.69;4993777;28;20042;-61
2022/05/10 03:39:23;;;;;;;23.30;13.80;;;;;;;7.56;88.42;94428.81;4992604;28;20627;-62
2022/05/10 03:41:50;;;;;;;23.20;14.10;;;;;;;7.58;87.81;94434.66;4993407;28;20419;-62
2022/05/10 03:44:16;;;;;;;25.75;14.85;;;;;;;7.64;87.95;94432.34;4993144;28;20076;-63
2022/05/10 03:46:45;;;;;;;26.58;15.40;;;;;;;7.67;88.33;94433.56;4976107;28;20399;-62
2022/05/10 03:49:12;;;;;;;25.52;14.90;;;;;;;7.57;88.05;94433.13;4993031;28;20046;-62
2022/05/10 03:51:45;;;;;;;24.23;14.77;;;;;;;7.56;88.67;94430.75;4993386;28;20054;-62
2022/05/10 03:54:12;;;;;;;24.27;13.75;;;;;;;7.56;87.89;94433.50;4975484;28;20403;-61
2022/05/10 03:56:39;;;;;;;22.58;14.38;;;;;;;7.58;87.92;94434.66;4993264;28;20045;-65
2022/05/10 03:59:06;;;;;;;24.98;14.52;;;;;;;7.64;88.40;94437.81;4992996;28;20045;-61
2022/05/10 04:01:32;;;;;;;23.92;14.65;;;;;;;7.70;87.50;94436.28;4986337;28;20074;-61
2022/05/10 04:04:01;;;;;;;22.67;14.30;;;;;;;7.74;87.85;94434.34;4974702;28;20093;-61
2022/05/10 04:06:28;;;;;;;24.63;13.82;;;;;;;7.74;87.67;94442.53;4956395;28;20585;-62
2022/05/10 04:08:55;;;;;;;25.55;14.55;;;;;;;7.54;88.39;94433.09;4973590;28;20573;-64
2022/05/10 04:11:22;;;;;;;23.05;14.25;;;;;;;7.60;87.22;94440.53;4973055;28;20407;-61
2022/05/10 04:13:49;;;;;;;25.63;14.55;;;;;;;7.68;87.95;94438.63;4973775;28;20053;-61
2022/05/10 04:16:16;;;;;;;25.80;15.30;;;;;;;7.78;87.93;94442.56;4973162;28;20050;-62
2022/05/10 04:18:43;;;;;;;24.98;15.27;;;;;;;7.86;86.97;94438.69;4987860;28;20065;-61
2022/05/10 04:21:10;;;;;;;23.73;14.50;;;;;;;7.95;86.50;94438.34;4981659;28;20435;-61
2022/05/10 04:23:37;;;;;;;21.73;13.95;;;;;;;8.03;86.26;94437.19;4973362;28;20291;-63
2022/05/10 04:26:15;;;;;;;28.25;15.20;;;;;;;8.03;86.36;94439.13;4956611;28;20403;-61
2022/05/10 04:28:43;;;;;;;22.93;14.23;;;;;;;7.97;86.38;94436.78;4973547;28;20121;-64
2022/05/10 04:31:10;;;;;;;22.38;14.43;;;;;;;7.91;86.73;94448.47;4972634;28;20055;-63
2022/05/10 04:33:37;;;;;;;22.15;14.30;;;;;;;7.94;86.47;94443.00;4973402;28;20055;-62
2022/05/10 04:36:04;;;;;;;23.45;13.82;;;;;;;7.98;86.35;94440.28;4971841;28;20042;-61
2022/05/10 04:38:31;;;;;;;21.95;13.90;;;;;;;8.02;86.34;94443.03;4972754;28;20492;-61
2022/05/10 04:43:44;;;;;;;22.63;13.85;;;;;;;8.22;86.19;94440.75;4972939;28;20043;-61
2022/05/10 04:46:11;;;;;;;24.08;14.68;;;;;;;8.28;85.61;94431.78;4972176;28;20589;-64
2022/05/10 04:48:38;;;;;;;29.23;18.40;;;;;;;8.37;84.67;94437.66;4972866;28;20047;-62
2022/05/10 04:51:06;;;;;;;22.67;14.32;;;;;;;8.38;84.51;94443.91;4972339;28;20046;-65
2022/05/10 04:53:33;;;;;;;24.77;15.33;;;;;;;8.28;85.12;94441.94;4955635;28;20057;-61
2022/05/10 04:56:00;;;;;;;21.73;13.90;;;;;;;8.18;84.73;94441.50;4972206;28;20061;-59
2022/05/10 04:58:27;;;;;;;26.08;15.15;;;;;;;8.27;85.20;94448.56;4972792;28;20043;-61
2022/05/10 05:01:00;;;;;;;21.75;13.98;;;;;;;8.52;84.17;94448.66;4976871;28;20407;-61
2022/05/10 05:03:27;;;;;;;23.30;14.95;;;;;;;8.37;84.79;94447.78;4982780;28;21530;-63
2022/05/10 05:05:53;;;;;;;23.73;14.60;;;;;;;8.57;84.87;94449.03;4972337;28;20053;-61
2022/05/10 05:08:20;;;;;;;23.05;14.50;;;;;;;8.77;84.45;94454.94;4971817;28;20049;-62
2022/05/10 05:10:47;;;;;;;22.80;14.20;;;;;;;8.96;83.56;94452.97;4971946;28;20408;-65
2022/05/10 05:13:15;;;;;;;25.55;15.20;;;;;;;9.02;82.99;94454.13;4971977;28;20039;-62
2022/05/10 05:15:42;;;;;;;23.20;15.00;;;;;;;9.14;82.92;94452.94;4972310;28;20046;-64
2022/05/10 05:18:09;;;;;;;25.17;14.87;;;;;;;9.03;83.28;94442.00;4986431;28;20058;-62
2022/05/10 05:20:39;;;;;;;22.02;14.90;;;;;;;9.14;83.43;94450.97;4974409;28;20039;-62
2022/05/10 05:23:08;;;;;;;25.80;15.38;;;;;;;9.51;82.66;94449.72;4991201;28;20050;-64
2022/05/10 05:25:36;;;;;;;22.48;14.88;;;;;;;9.58;82.37;94446.97;4991480;28;20054;-62
2022/05/10 05:28:04;;;;;;;21.50;14.85;;;;;;;9.62;82.49;94452.47;4991034;28;20038;-65
2022/05/10 05:30:31;;;;;;;23.17;14.23;;;;;;;9.46;82.88;94446.63;4991354;28;20045;-64
2022/05/10 05:32:58;;;;;;;22.70;14.90;;;;;;;9.38;82.52;94443.91;4991281;28;20074;-61
2022/05/10 05:35:25;;;;;;;23.65;15.15;;;;;;;9.37;83.42;94450.53;4973439;28;20635;-61
2022/05/10 05:37:53;;;;;;;23.05;14.68;;;;;;;9.79;82.76;94446.13;4991166;28;20460;-62
2022/05/10 05:40:22;;;;;;;23.95;15.07;;;;;;;10.00;81.85;94448.00;4973771;28;20044;-62
2022/05/10 05:42:50;;;;;;;23.27;14.53;;;;;;;10.29;80.40;94452.56;4973855;28;20050;-61
2022/05/10 05:45:19;;;;;;;21.80;14.88;;;;;;;10.62;79.26;94445.72;4990424;28;20046;-63
2022/05/10 05:47:46;;;;;;;23.40;15.27;;;;;;;11.84;75.60;94447.34;4991197;28;20046;-62
2022/05/10 05:50:16;;;;;;;22.15;14.88;;;;;;;13.87;67.63;94441.91;4990521;28;20590;-64
2022/05/10 05:52:43;;;;;;;20.10;14.05;;;;;;;15.56;62.10;94440.91;4991059;28;20050;-64
2022/05/10 05:55:11;;;;;;;19.07;13.63;;;;;;;17.01;57.15;94447.47;4990835;28;20046;-63
2022/05/10 05:57:38;;;;;;;17.95;13.82;;;;;;;18.34;53.29;94437.44;4991094;28;20052;-66
2022/05/10 06:00:08;;;;;;;18.83;14.27;;;;;;;18.90;51.14;94447.66;4990323;28;20038;-69
2022/05/10 06:02:36;;;;;;;18.20;15.18;;;;;;;19.51;50.19;94439.63;4979512;28;20049;-64
2022/05/10 06:05:04;;;;;;;17.88;13.48;;;;;;;19.91;47.68;94441.56;4988305;28;20046;-65
2022/05/10 06:07:31;;;;;;;17.23;13.53;;;;;;;19.98;47.10;94448.88;4990803;28;20042;-65
2022/05/10 06:09:58;;;;;;;18.80;14.02;;;;;;;20.09;47.07;94446.38;4991166;28;20057;-62
2022/05/10 06:12:25;;;;;;;17.90;13.68;;;;;;;21.01;45.63;94451.03;4989459;28;20840;-63
2022/05/10 06:14:52;;;;;;;16.67;12.90;;;;;;;20.19;46.99;94446.38;4990746;28;20046;-62
2022/05/10 06:17:19;;;;;;;20.98;13.15;;;;;;;19.90;47.90;94444.81;4990295;28;20058;-63
2022/05/10 06:19:46;;;;;;;16.70;13.00;;;;;;;20.33;47.18;94445.75;4990715;28;20054;-63
2022/05/10 06:22:14;;;;;;;16.88;12.60;;;;;;;21.24;45.27;94454.34;4990084;28;20398;-62
2022/05/10 06:24:41;;;;;;;14.82;11.60;;;;;;;22.17;43.27;94446.16;4975064;28;20435;-62
2022/05/10 06:27:13;;;;;;;13.35;11.95;;;;;;;22.39;42.69;94441.03;4969931;28;20039;-65
2022/05/10 06:29:41;;;;;;;12.98;11.30;;;;;;;22.69;41.19;94441.81;4971208;28;20068;-63
2022/05/10 06:32:08;;;;;;;15.17;12.17;;;;;;;22.04;42.57;94447.19;4970198;28;20053;-67
2022/05/10 06:34:34;;;;;;;14.75;11.80;;;;;;;22.72;41.96;94440.84;4970840;28;20057;-61
2022/05/10 06:37:01;;;;;;;13.35;11.40;;;;;;;22.56;42.05;94441.34;4970679;28;20050;-65
2022/05/10 06:39:28;;;;;;;13.90;11.25;;;;;;;23.83;39.90;94441.53;4970649;28;20065;-62
2022/05/10 06:41:55;;;;;;;13.35;11.50;;;;;;;23.41;40.35;94443.50;4970648;28;20050;-62
2022/05/10 06:44:22;;;;;;;15.40;11.20;;;;;;;22.84;41.27;94441.03;4968600;28;20050;-61
2022/05/10 06:46:49;;;;;;;14.10;11.63;;;;;;;22.18;43.08;94442.13;4970713;28;20292;-61
2022/05/10 06:49:18;;;;;;;13.52;11.80;;;;;;;23.06;41.38;94438.66;4970736;28;20387;-59
2022/05/10 06:51:44;;;;;;;13.07;11.18;;;;;;;24.46;38.74;94441.00;4969781;28;20092;-61
2022/05/10 06:54:11;;;;;;;12.90;10.82;;;;;;;24.50;38.92;94441.56;4970134;28;20046;-65
2022/05/10 06:56:38;;;;;;;12.60;10.97;;;;;;;26.23;35.90;94434.13;4971035;28;20518;-61
2022/05/10 06:59:04;;;;;;;13.65;11.27;;;;;;;26.74;34.62;94435.03;4970681;28;20053;-62
2022/05/10 07:01:31;;;;;;;12.40;11.10;;;;;;;26.96;34.14;94434.28;4976979;28;20619;-65
2022/05/10 07:03:59;;;;;;;13.80;10.95;;;;;;;27.62;33.39;94434.03;4985695;28;20055;-57
2022/05/10 07:06:27;;;;;;;12.35;11.00;;;;;;;27.42;33.79;94435.84;4975093;28;20043;-64
2022/05/10 07:08:53;;;;;;;11.40;10.20;;;;;;;28.31;32.68;94435.34;4957705;28;20051;-61
2022/05/10 07:11:20;;;;;;;12.43;10.05;;;;;;;29.74;30.43;94431.78;4969361;28;20051;-61
2022/05/10 07:13:47;;;;;;;12.38;11.07;;;;;;;29.56;30.05;94431.19;4954304;29;20043;-62
2022/05/10 07:16:14;;;;;;;13.18;11.88;;;;;;;27.64;33.45;94425.81;4954835;28;20040;-62
2022/05/10 07:18:41;;;;;;;11.50;10.10;;;;;;;28.83;31.84;94426.84;4974068;28;20042;-62
2022/05/10 07:21:09;;;;;;;11.27;10.03;;;;;;;28.52;32.85;94419.63;4974080;28;20050;-65
2022/05/10 07:23:37;;;;;;;12.05;10.57;;;;;;;29.01;31.94;94422.63;4974511;28;20043;-61
2022/05/10 07:26:05;;;;;;;12.20;10.13;;;;;;;29.62;30.85;94419.78;4974334;28;20049;-65
2022/05/10 07:28:32;;;;;;;10.13;9.10;;;;;;;30.12;30.29;94415.66;4974467;28;20090;-62
2022/05/10 07:31:00;;;;;;;10.38;8.80;;;;;;;30.68;28.38;94422.69;4973955;28;20049;-62
2022/05/10 07:33:28;;;;;;;9.93;8.50;;;;;;;29.42;30.58;94418.22;4974293;28;20043;-64
2022/05/10 07:36:39;;;;;;;10.52;8.50;;;;;;;29.39;29.07;94422.84;4974275;28;20047;-61
2022/05/10 07:38:45;;;;;;;9.88;8.30;;;;;;;29.38;29.87;94421.31;4970400;28;20819;-62
2022/05/10 07:41:12;;;;;;;9.43;8.52;;;;;;;29.94;29.54;94417.19;4973760;28;20047;-61
2022/05/10 07:43:39;;;;;;;9.90;8.57;;;;;;;31.21;27.05;94428.63;4974594;28;20411;-61
2022/05/10 07:46:07;;;;;;;9.20;8.10;;;;;;;32.08;26.79;94415.28;4972320;28;20054;-65
2022/05/10 07:48:34;;;;;;;8.07;7.22;;;;;;;33.79;24.39;94423.03;4974215;28;20043;-62
2022/05/10 07:51:02;;;;;;;9.57;7.82;;;;;;;31.77;26.74;94426.13;4972491;28;20074;-61
2022/05/10 07:53:35;;;;;;;8.68;7.63;;;;;;;31.79;26.68;94424.31;4974172;28;20057;-61
2022/05/10 07:56:04;;;;;;;9.18;7.90;;;;;;;28.60;30.89;94419.84;4973681;28;20065;-64
2022/05/10 07:58:30;;;;;;;8.77;7.50;;;;;;;29.73;30.49;94413.31;4974005;28;20053;-60
2022/05/10 08:00:59;;;;;;;8.03;7.17;;;;;;;32.42;26.35;94412.50;4972646;28;20039;-61
2022/05/10 08:03:26;;;;;;;8.50;7.65;;;;;;;30.63;28.27;94412.97;4973143;28;20661;-60
2022/05/10 08:05:59;;;;;;;8.07;7.28;;;;;;;31.72;27.13;94410.00;4973309;28;20054;-64
2022/05/10 08:08:28;;;;;;;10.25;7.90;;;;;;;31.55;28.02;94401.78;4972879;28;21763;-62
2022/05/10 08:11:02;;;;;;;8.87;7.97;;;;;;;28.20;33.21;94397.44;4977631;28;20090;-61
2022/05/10 08:13:31;;;;;;;12.63;7.90;;;;;;;28.31;32.22;94401.47;4992921;28;20042;-60
2022/05/10 08:15:59;;;;;;;9.60;7.15;;;;;;;31.45;27.28;94412.78;4992917;28;20064;-60
2022/05/10 08:18:27;;;;;;;7.47;6.70;;;;;;;32.24;27.20;94403.56;4974902;28;21631;-61
2022/05/10 08:20:57;;;;;;;7.90;7.10;;;;;;;30.45;29.35;94405.25;4993106;28;20061;-61
2022/05/10 08:23:28;;;;;;;7.20;6.50;;;;;;;32.93;24.58;94391.50;4992478;28;20043;-60
2022/05/10 08:25:57;;;;;;;7.20;6.50;;;;;;;31.21;27.23;94399.47;4992804;28;20415;-61
2022/05/10 08:28:25;;;;;;;7.35;6.57;;;;;;;32.49;24.58;94397.59;4992045;28;20654;-62
2022/05/10 08:30:52;;;;;;;7.10;6.40;;;;;;;31.85;25.67;94402.25;4992706;28;20050;-61
2022/05/10 08:33:25;;;;;;;7.68;6.88;;;;;;;29.54;28.38;94396.22;4992067;28;20060;-61
2022/05/10 08:35:54;;;;;;;7.77;6.00;;;;;;;30.76;27.50;94398.09;4992754;28;20046;-66
2022/05/10 08:38:21;;;;;;;7.40;6.30;;;;;;;32.17;25.48;94395.69;4991954;28;20260;-65
2022/05/10 08:40:59;;;;;;;7.78;6.97;;;;;;;30.31;27.44;94393.09;4992679;28;20058;-66
2022/05/10 08:43:36;;;;;;;8.82;6.72;;;;;;;28.84;29.13;94394.50;4991570;28;20752;-60
2022/05/10 08:46:06;;;;;;;7.68;6.88;;;;;;;28.61;29.95;94399.53;4992094;28;20038;-64
2022/05/10 08:48:33;;;;;;;7.70;6.30;;;;;;;28.28;31.11;94398.41;4973570;28;20052;-62
2022/05/10 08:51:01;;;;;;;7.47;6.20;;;;;;;29.39;29.12;94393.81;4984803;28;20058;-65
2022/05/10 08:53:30;;;;;;;8.10;6.35;;;;;;;29.04;29.76;94390.50;4973051;28;20407;-62
2022/05/10 08:56:00;;;;;;;7.25;6.45;;;;;;;29.52;29.15;94396.00;4973077;28;20062;-66
2022/05/10 08:58:46;;;;;;;7.78;6.50;;;;;;;30.77;27.38;94387.56;4971992;28;20358;-66
2022/05/10 09:01:39;;;;;;;7.00;5.80;;;;;;;30.55;26.79;94382.97;4971563;28;20513;-62
2022/05/10 09:04:29;;;;;;;6.93;5.80;;;;;;;31.89;26.13;94384.13;4955048;28;20411;-61
2022/05/10 09:07:24;;;;;;;6.60;5.55;;;;;;;31.79;25.27;94387.41;4972277;28;20078;-61
2022/05/10 09:09:53;;;;;;;6.65;5.20;;;;;;;31.12;25.88;94385.72;4972998;28;20053;-65
2022/05/10 09:12:23;;;;;;;6.70;5.70;;;;;;;28.10;30.12;94390.56;4971651;28;20047;-63
2022/05/10 09:14:54;;;;;;;7.00;5.90;;;;;;;28.51;29.85;94383.44;4972316;28;20149;-63
2022/05/10 09:17:22;;;;;;;8.57;6.20;;;;;;;27.61;31.43;94385.31;4979028;28;20085;-60
2022/05/10 09:19:50;;;;;;;6.72;5.78;;;;;;;25.59;33.93;94388.56;4991908;28;20042;-62
2022/05/10 09:22:55;;;;;;;7.25;5.95;;;;;;;26.03;33.47;94390.06;4975982;28;21783;-59
2022/05/10 09:25:37;;;;;;;8.90;6.45;;;;;;;26.45;33.73;94389.16;4991431;28;20070;-62
2022/05/10 09:28:52;;;;;;;8.03;5.90;;;;;;;25.72;35.33;94388.91;4991235;28;20047;-61
2022/05/10 09:34:46;;;;;;;8.48;6.57;;;;;;;24.62;37.77;94389.13;4990598;28;20839;-59
2022/05/10 09:37:35;;;;;;;8.25;6.35;;;;;;;25.62;36.60;94396.00;4991239;28;20072;-60
2022/05/10 09:40:32;;;;;;;7.70;6.22;;;;;;;27.33;33.63;94393.84;4990987;28;20050;-65
2022/05/10 09:43:22;;;;;;;8.57;6.13;;;;;;;31.18;27.07;94386.41;4990589;28;20584;-63
2022/05/10 09:46:12;;;;;;;6.85;5.70;;;;;;;33.29;24.63;94376.69;4991414;28;20562;-61
2022/05/10 09:48:42;;;;;;;6.35;5.03;;;;;;;33.96;21.97;94377.75;4987345;28;20463;-62
2022/05/10 09:51:34;;;;;;;6.25;4.95;;;;;;;34.83;21.93;94374.75;4979080;28;20050;-65
2022/05/10 09:54:25;;;;;;;6.68;5.05;;;;;;;33.00;23.34;94370.88;4990783;28;20048;-61
2022/05/10 09:56:56;;;;;;;6.00;5.20;;;;;;;31.63;25.88;94377.13;4973862;28;20426;-61
2022/05/10 09:59:24;;;;;;;6.05;5.30;;;;;;;30.83;27.03;94380.50;4990755;28;20426;-61
2022/05/10 10:01:54;;;;;;;6.03;4.93;;;;;;;32.82;24.57;94367.72;4990954;28;20040;-63
2022/05/10 10:04:31;;;;;;;6.32;5.13;;;;;;;29.19;29.26;94375.25;4990667;28;20038;-61
2022/05/10 10:07:17;;;;;;;6.20;5.57;;;;;;;29.65;28.19;94368.59;4972920;28;20042;-58
2022/05/10 10:09:51;;;;;;;6.07;5.30;;;;;;;28.21;30.09;94369.97;4990895;28;20046;-60
2022/05/10 10:12:36;;;;;;;6.40;5.70;;;;;;;27.36;32.21;94369.50;4989647;28;20049;-60
2022/05/10 10:15:25;;;;;;;8.60;5.60;;;;;;;28.00;30.78;94367.50;4989786;28;20042;-60
2022/05/10 10:17:55;;;;;;;6.22;5.53;;;;;;;27.58;31.94;94366.63;4990510;28;20060;-60
2022/05/10 10:20:32;;;;;;;6.03;5.40;;;;;;;28.43;30.00;94369.06;4990374;28;20038;-65
2022/05/10 10:23:03;;;;;;;7.13;5.33;;;;;;;28.29;30.25;94371.75;4990313;28;20048;-56
2022/05/10 10:25:39;;;;;;;6.80;5.18;;;;;;;29.17;29.34;94369.34;4990524;28;20046;-64
2022/05/10 10:28:24;;;;;;;6.20;5.20;;;;;;;28.01;31.25;94366.25;4990360;28;20093;-61
2022/05/10 10:31:17;;;;;;;6.20;5.05;;;;;;;29.66;28.47;94366.53;4990576;28;20042;-60
2022/05/10 10:34:20;;;;;;;7.35;4.70;;;;;;;31.09;26.56;94372.63;4989532;28;20426;-63
2022/05/10 10:36:50;;;;;;;5.93;5.33;;;;;;;30.74;26.88;94360.28;4989591;28;21812;-62
2022/05/10 10:39:23;;;;;;;6.85;5.03;;;;;;;32.31;25.27;94364.44;4989853;28;20185;-61
2022/05/10 10:42:10;;;;;;;5.88;5.20;;;;;;;30.70;27.23;94357.75;4990252;28;20046;-60
2022/05/10 10:44:43;;;;;;;7.88;5.15;;;;;;;30.15;27.54;94357.25;4989665;28;20904;-60
2022/05/10 10:47:34;;;;;;;6.75;5.00;;;;;;;29.25;28.06;94350.50;4989972;28;20069;-62
2022/05/10 10:50:27;;;;;;;6.10;4.70;;;;;;;28.23;29.06;94361.75;4980789;28;20364;-60
2022/05/10 10:52:56;;;;;;;7.95;4.93;;;;;;;26.16;32.22;94356.63;4975079;28;20399;-60
2022/05/10 10:55:32;;;;;;;6.20;4.82;;;;;;;25.60;34.34;94359.22;4970637;28;20046;-63
2022/05/10 10:58:18;;;;;;;6.47;4.90;;;;;;;26.82;31.87;94353.63;4970593;28;20124;-61
2022/05/10 11:01:14;;;;;;;6.95;5.00;;;;;;;25.86;33.11;94364.69;4970998;28;20069;-61
2022/05/10 11:04:02;;;;;;;6.77;4.93;;;;;;;26.04;33.70;94352.25;4970213;28;20086;-66
2022/05/10 11:06:34;;;;;;;7.85;4.97;;;;;;;26.62;31.77;94347.00;4969852;28;20953;-60
2022/05/10 11:09:15;;;;;;;5.72;4.80;;;;;;;25.73;33.91;94348.25;4969883;28;20055;-60
2022/05/10 11:12:29;;;;;;;6.07;4.70;;;;;;;26.18;33.09;94348.44;4970608;28;20053;-63
2022/05/10 11:15:02;;;;;;;6.05;4.95;;;;;;;25.18;33.77;94344.63;4927261;28;20677;-62
2022/05/10 11:17:32;;;;;;;8.43;4.80;;;;;;;24.05;36.11;94335.28;4979106;28;21728;-62
2022/05/10 11:20:23;;;;;;;6.82;5.10;;;;;;;23.65;36.91;94338.88;4989758;28;20043;-58
2022/05/10 11:23:10;;;;;;;7.45;5.30;;;;;;;23.06;39.22;94337.88;4989858;28;20083;-63
2022/05/10 11:26:18;;;;;;;6.88;5.20;;;;;;;22.50;39.78;94334.94;4989217;28;20551;-63
2022/05/10 11:29:30;;;;;;;6.30;4.95;;;;;;;22.88;39.35;94341.66;4989258;28;20851;-64
2022/05/10 11:32:18;;;;;;;8.33;4.90;;;;;;;24.06;37.73;94322.78;4972403;28;20046;-63
2022/05/10 11:34:54;;;;;;;7.40;5.00;;;;;;;24.27;36.97;94334.72;4989178;28;20659;-63
2022/05/10 11:37:31;;;;;;;7.50;5.20;;;;;;;23.21;38.67;94331.44;4972000;28;20054;-61
2022/05/10 11:40:20;;;;;;;7.47;5.10;;;;;;;23.06;38.84;94326.66;4972554;28;20406;-61
2022/05/10 11:43:02;;;;;;;7.78;5.30;;;;;;;24.32;37.17;94322.00;4988954;28;21540;-63
2022/05/10 11:45:54;;;;;;;6.30;4.70;;;;;;;24.09;36.70;94321.03;4973614;28;20777;-66
2022/05/10 11:48:39;;;;;;;6.57;5.20;;;;;;;23.67;38.12;94313.94;4993441;28;20046;-60
2022/05/10 11:54:32;;;;;;;7.75;5.05;;;;;;;24.16;36.62;94311.41;4992760;28;20494;-61
2022/05/10 11:57:00;;;;;;;6.80;4.80;;;;;;;24.94;36.39;94313.34;4992821;28;20046;-58
2022/05/10 11:59:32;;;;;;;5.53;4.43;;;;;;;24.88;34.82;94302.84;4993519;28;20050;-60
2022/05/10 12:02:00;;;;;;;7.22;4.93;;;;;;;23.75;36.81;94303.06;4992725;28;20049;-57
2022/05/10 12:04:46;;;;;;;5.97;4.68;;;;;;;23.61;37.83;94310.31;4976008;28;20033;-64
2022/05/10 12:07:19;;;;;;;5.68;4.63;;;;;;;24.09;36.58;94296.56;4992831;28;20061;-61
2022/05/10 12:09:52;;;;;;;5.80;4.60;;;;;;;23.94;36.12;94290.28;4993402;28;20125;-60